createdAt,value
2018-03-26T00:01:59.579Z,26.35
2018-03-26T00:04:27.166Z,25.25
2018-03-26T00:06:55.523Z,26.00
2018-03-26T00:09:23.111Z,25.95
2018-03-26T00:11:51.464Z,26.33
2018-03-26T00:14:19.047Z,25.62
2018-03-26T00:16:46.628Z,26.08
2018-03-26T00:19:14.983Z,25.10
2018-03-26T00:21:42.576Z,26.25
2018-03-26T00:24:10.931Z,25.95
2018-03-26T00:26:38.519Z,25.45
2018-03-26T00:29:06.878Z,25.88
2018-03-26T00:31:34.465Z,26.37
2018-03-26T00:34:02.818Z,27.55
2018-03-26T00:36:30.407Z,25.75
2018-03-26T00:38:57.994Z,26.48
2018-03-26T00:41:25.583Z,24.75
2018-03-26T00:43:53.179Z,27.05
2018-03-26T00:46:20.810Z,26.40
2018-03-26T00:48:48.410Z,26.55
2018-03-26T00:51:15.998Z,27.48
2018-03-26T00:53:44.505Z,27.15
2018-03-26T00:56:12.087Z,26.90
2018-03-26T00:58:39.675Z,26.45
2018-03-26T01:01:07.298Z,27.75
2018-03-26T01:03:34.915Z,26.65
2018-03-26T01:06:02.505Z,27.30
2018-03-26T01:08:30.088Z,26.02
2018-03-26T01:10:58.443Z,27.87
2018-03-26T01:13:26.036Z,28.05
2018-03-26T01:15:54.391Z,27.90
2018-03-26T01:18:21.976Z,27.25
2018-03-26T01:20:49.570Z,26.48
2018-03-26T01:23:17.156Z,28.25
2018-03-26T01:25:44.748Z,27.95
2018-03-26T01:28:12.335Z,24.98
2018-03-26T01:30:39.923Z,27.00
2018-03-26T01:33:07.502Z,28.58
2018-03-26T01:35:35.090Z,26.23
2018-03-26T01:38:02.680Z,27.10
2018-03-26T01:40:30.267Z,27.15
2018-03-26T01:42:58.618Z,26.98
2018-03-26T01:45:26.221Z,26.50
2018-03-26T01:47:53.855Z,26.70
2018-03-26T01:50:21.463Z,26.52
2018-03-26T01:52:49.048Z,27.48
2018-03-26T01:55:16.635Z,27.90
2018-03-26T01:57:44.220Z,26.48
2018-03-26T02:00:11.803Z,26.87
2018-03-26T02:02:40.154Z,25.60
2018-03-26T02:05:07.735Z,27.37
2018-03-26T02:07:35.327Z,28.12
2018-03-26T02:10:02.958Z,28.20
2018-03-26T02:12:30.600Z,27.60
2018-03-26T02:14:58.218Z,26.85
2018-03-26T02:17:25.867Z,25.50
2018-03-26T02:19:53.475Z,26.12
2018-03-26T02:22:21.063Z,26.17
2018-03-26T02:24:48.649Z,27.08
2018-03-26T02:27:16.239Z,27.73
2018-03-26T02:29:43.834Z,27.15
2018-03-26T02:32:11.451Z,27.65
2018-03-26T02:34:39.804Z,28.20
2018-03-26T02:37:07.407Z,27.55
2018-03-26T02:39:35.758Z,28.23
2018-03-26T02:42:03.356Z,27.75
2018-03-26T02:44:31.708Z,27.70
2018-03-26T02:46:59.292Z,29.23
2018-03-26T02:49:27.643Z,26.85
2018-03-26T02:51:55.243Z,27.75
2018-03-26T02:54:22.835Z,28.85
2018-03-26T02:56:50.433Z,25.92
2018-03-26T02:59:18.043Z,29.17
2018-03-26T03:01:46.405Z,28.80
2018-03-26T03:04:13.991Z,28.27
2018-03-26T03:06:42.371Z,27.95
2018-03-26T03:09:10.715Z,28.25
2018-03-26T03:11:38.299Z,27.55
2018-03-26T03:14:05.926Z,29.90
2018-03-26T03:16:33.511Z,27.70
2018-03-26T03:19:01.091Z,30.40
2018-03-26T03:21:28.687Z,28.87
2018-03-26T03:23:56.279Z,27.48
2018-03-26T03:26:23.867Z,28.27
2018-03-26T03:28:51.448Z,28.45
2018-03-26T03:31:19.040Z,27.92
2018-03-26T03:33:46.637Z,27.40
2018-03-26T03:36:14.271Z,29.42
2018-03-26T03:38:42.618Z,27.00
2018-03-26T03:41:10.207Z,28.62
2018-03-26T03:43:38.562Z,29.80
2018-03-26T03:46:06.151Z,29.30
2018-03-26T03:48:34.502Z,29.63
2018-03-26T03:51:02.091Z,29.50
2018-03-26T03:53:29.715Z,29.67
2018-03-26T03:55:57.299Z,30.25
2018-03-26T03:58:24.890Z,29.63
2018-03-26T04:00:52.478Z,29.70
2018-03-26T04:03:20.831Z,29.80
2018-03-26T04:05:48.427Z,30.10
2018-03-26T04:08:16.015Z,28.55
2018-03-26T04:10:43.606Z,28.05
2018-03-26T04:13:11.194Z,30.30
2018-03-26T04:15:38.791Z,28.35
2018-03-26T04:18:06.382Z,28.62
2018-03-26T04:20:33.968Z,28.73
2018-03-26T04:23:01.551Z,29.45
2018-03-26T04:25:29.138Z,30.00
2018-03-26T04:27:57.487Z,29.73
2018-03-26T04:30:25.075Z,29.25
2018-03-26T04:32:53.422Z,30.83
2018-03-26T04:35:21.068Z,31.15
2018-03-26T04:37:49.383Z,30.20
2018-03-26T04:40:16.987Z,30.33
2018-03-26T04:42:44.577Z,30.45
2018-03-26T04:45:12.211Z,28.45
2018-03-26T04:47:40.564Z,29.40
2018-03-26T04:50:08.163Z,29.02
2018-03-26T04:52:35.752Z,30.52
2018-03-26T04:55:03.367Z,31.65
2018-03-26T04:57:30.954Z,28.50
2018-03-26T04:59:59.334Z,32.13
2018-03-26T05:02:27.687Z,29.45
2018-03-26T05:04:55.276Z,31.42
2018-03-26T05:07:23.631Z,30.98
2018-03-26T05:09:51.264Z,31.62
2018-03-26T05:12:18.843Z,31.27
2018-03-26T05:14:46.486Z,28.20
2018-03-26T05:17:14.111Z,30.92
2018-03-26T05:19:42.468Z,29.98
2018-03-26T05:22:10.058Z,30.75
2018-03-26T05:24:37.651Z,30.15
2018-03-26T05:27:05.231Z,29.42
2018-03-26T05:29:32.823Z,31.17
2018-03-26T05:32:00.408Z,29.55
2018-03-26T05:34:27.990Z,30.90
2018-03-26T05:36:56.338Z,28.92
2018-03-26T05:39:23.930Z,32.22
2018-03-26T05:41:52.282Z,30.77
2018-03-26T05:44:19.867Z,30.42
2018-03-26T05:46:47.455Z,30.58
2018-03-26T05:49:15.044Z,32.03
2018-03-26T05:51:42.632Z,31.08
2018-03-26T05:54:10.227Z,33.50
2018-03-26T05:56:37.829Z,32.03
2018-03-26T05:59:05.475Z,32.17
2018-03-26T06:01:33.827Z,31.67
2018-03-26T06:04:01.420Z,32.88
2018-03-26T06:06:29.776Z,35.42
2018-03-26T06:08:57.408Z,34.88
2018-03-26T06:11:25.480Z,34.80
2018-03-26T06:13:53.072Z,32.97
2018-03-26T06:16:20.667Z,31.62
2018-03-26T06:18:48.282Z,30.75
2018-03-26T06:21:15.947Z,32.67
2018-03-26T06:23:53.470Z,31.90
2018-03-26T06:26:21.073Z,31.67
2018-03-26T06:28:48.683Z,31.55
2018-03-26T06:31:16.304Z,30.58
2018-03-26T06:33:44.703Z,31.30
2018-03-26T06:36:31.975Z,30.90
2018-03-26T06:39:00.503Z,31.27
2018-03-26T06:41:28.097Z,32.42
2018-03-26T06:43:55.711Z,32.50
2018-03-26T06:46:23.346Z,33.47
2018-03-26T06:48:50.932Z,31.45
2018-03-26T06:51:19.290Z,33.03
2018-03-26T06:53:46.878Z,31.17
2018-03-26T06:56:15.275Z,31.80
2018-03-26T06:58:43.628Z,31.87
2018-03-26T07:01:11.223Z,35.15
2018-03-26T07:03:38.802Z,33.17
2018-03-26T07:06:06.398Z,32.97
2018-03-26T07:08:33.979Z,34.78
2018-03-26T07:11:01.583Z,31.25
2018-03-26T07:13:29.935Z,34.35
2018-03-26T07:15:57.523Z,33.38
2018-03-26T07:18:25.870Z,34.30
2018-03-26T07:20:53.450Z,33.75
2018-03-26T07:23:21.035Z,32.10
2018-03-26T07:25:49.386Z,34.92
2018-03-26T07:28:16.966Z,33.85
2018-03-26T07:30:44.549Z,33.53
2018-03-26T07:33:12.906Z,34.03
2018-03-26T07:35:40.495Z,34.33
2018-03-26T07:38:08.899Z,33.83
2018-03-26T07:40:36.486Z,34.58
2018-03-26T07:43:04.074Z,32.63
2018-03-26T07:45:31.659Z,34.33
2018-03-26T07:48:00.011Z,34.28
2018-03-26T07:50:27.594Z,38.63
2018-03-26T07:52:55.178Z,38.22
2018-03-26T07:55:23.528Z,38.00
2018-03-26T07:57:51.107Z,34.85
2018-03-26T08:00:18.774Z,36.95
2018-03-26T08:02:46.418Z,35.75
2018-03-26T08:05:14.019Z,34.67
2018-03-26T08:07:42.410Z,39.05
2018-03-26T08:10:10.759Z,36.08
2018-03-26T08:12:38.361Z,36.88
2018-03-26T08:15:05.988Z,38.80
2018-03-26T08:17:33.566Z,37.42
2018-03-26T08:20:01.151Z,35.85
2018-03-26T08:22:29.515Z,35.85
2018-03-26T08:24:57.104Z,35.33
2018-03-26T08:27:25.466Z,36.63
2018-03-26T08:29:53.050Z,36.03
2018-03-26T08:32:20.659Z,42.30
2018-03-26T08:34:48.250Z,36.38
2018-03-26T08:37:15.851Z,36.95
2018-03-26T08:39:43.439Z,37.80
2018-03-26T08:42:11.096Z,37.08
2018-03-26T08:44:39.430Z,38.35
2018-03-26T08:47:07.015Z,37.90
2018-03-26T08:49:35.371Z,39.28
2018-03-26T08:52:03.003Z,38.33
2018-03-26T08:54:30.582Z,36.95
2018-03-26T08:56:58.163Z,40.05
2018-03-26T08:59:25.812Z,39.05
2018-03-26T09:01:53.398Z,39.38
2018-03-26T09:04:20.982Z,39.65
2018-03-26T09:06:48.570Z,37.80
2018-03-26T09:09:16.159Z,37.88
2018-03-26T09:11:43.788Z,35.85
2018-03-26T09:14:12.139Z,36.95
2018-03-26T09:16:39.735Z,38.25
2018-03-26T09:19:07.331Z,36.80
2018-03-26T09:21:34.955Z,36.35
2018-03-26T09:24:03.407Z,37.30
2018-03-26T09:26:30.994Z,37.17
2018-03-26T09:28:58.599Z,35.65
2018-03-26T09:31:26.791Z,38.42
2018-03-26T09:33:54.370Z,35.90
2018-03-26T09:36:21.950Z,39.58
2018-03-26T09:38:49.530Z,41.70
2018-03-26T09:41:17.109Z,39.55
2018-03-26T09:43:45.455Z,42.22
2018-03-26T09:46:13.068Z,38.95
2018-03-26T09:48:40.660Z,39.88
2018-03-26T09:51:08.294Z,41.13
2018-03-26T09:53:36.646Z,42.60
2018-03-26T09:56:04.240Z,41.95
2018-03-26T09:58:32.596Z,43.63
2018-03-26T10:01:02.112Z,41.25
2018-03-26T10:03:29.741Z,42.17
2018-03-26T10:05:57.327Z,41.33
2018-03-26T10:08:24.919Z,43.60
2018-03-26T10:10:53.275Z,43.50
2018-03-26T10:13:21.104Z,40.42
2018-03-26T10:15:49.021Z,41.15
2018-03-26T10:18:19.602Z,40.50
2018-03-26T10:20:52.030Z,38.72
2018-03-26T10:23:19.972Z,40.42
2018-03-26T10:26:02.023Z,40.97
2018-03-26T10:28:32.806Z,39.78
2018-03-26T10:31:01.898Z,39.67
2018-03-26T10:33:30.261Z,38.47
2018-03-26T10:36:05.735Z,40.78
2018-03-26T10:38:35.714Z,40.85
2018-03-26T10:41:04.650Z,39.67
2018-03-26T10:43:32.593Z,40.38
2018-03-26T10:46:00.341Z,42.20
2018-03-26T10:48:28.760Z,41.00
2018-03-26T10:50:56.343Z,40.72
2018-03-26T10:53:23.927Z,39.90
2018-03-26T10:55:52.931Z,38.45
2018-03-26T10:58:21.753Z,38.92
2018-03-26T11:00:54.537Z,40.60
2018-03-26T11:03:24.471Z,42.90
2018-03-26T11:05:55.568Z,40.15
2018-03-26T11:08:26.005Z,39.63
2018-03-26T11:11:17.139Z,40.10
2018-03-26T11:13:44.963Z,37.40
2018-03-26T11:16:12.542Z,41.95
2018-03-26T11:18:40.130Z,41.83
2018-03-26T11:21:08.474Z,41.22
2018-03-26T11:23:36.059Z,40.97
2018-03-26T11:26:03.659Z,40.88
2018-03-26T11:28:31.282Z,44.00
2018-03-26T11:30:58.947Z,42.67
2018-03-26T11:33:26.558Z,41.88
2018-03-26T11:35:54.142Z,40.53
2018-03-26T11:38:21.754Z,41.25
2018-03-26T11:40:50.985Z,40.83
2018-03-26T11:43:18.584Z,40.53
2018-03-26T11:45:46.179Z,40.20
2018-03-26T11:48:13.775Z,41.20
2018-03-26T11:50:41.366Z,40.33
2018-03-26T11:53:08.946Z,39.67
2018-03-26T11:55:36.591Z,41.30
2018-03-26T11:58:04.223Z,42.35
2018-03-26T12:00:32.583Z,42.42
2018-03-26T12:03:00.183Z,41.63
2018-03-26T12:05:27.769Z,41.17
2018-03-26T12:07:55.363Z,41.63
2018-03-26T12:10:22.947Z,42.58
2018-03-26T12:12:50.531Z,40.80
2018-03-26T12:15:18.882Z,37.55
2018-03-26T12:17:46.475Z,39.53
2018-03-26T12:20:26.750Z,41.28
2018-03-26T12:22:54.339Z,37.00
2018-03-26T12:25:21.989Z,37.67
2018-03-26T12:28:01.420Z,39.10
2018-03-26T12:30:29.023Z,38.85
2018-03-26T12:32:56.664Z,40.05
2018-03-26T12:35:36.211Z,29.25
2018-03-26T12:38:03.863Z,29.50
2018-03-26T12:40:43.166Z,31.70
2018-03-26T12:43:11.566Z,30.98
2018-03-26T12:45:50.915Z,35.03
2018-03-26T12:48:18.511Z,47.83
2018-03-26T12:50:58.030Z,32.63
2018-03-26T12:53:25.619Z,31.98
2018-03-26T12:55:53.207Z,27.50
2018-03-26T12:58:33.380Z,29.12
2018-03-26T13:01:12.852Z,31.58
2018-03-26T13:03:40.451Z,26.85
2018-03-26T13:06:08.802Z,26.77
2018-03-26T13:08:36.480Z,24.77
2018-03-26T13:11:04.075Z,25.33
2018-03-26T13:13:32.434Z,24.35
2018-03-26T13:16:00.019Z,25.45
2018-03-26T13:18:28.411Z,26.25
2018-03-26T13:20:56.763Z,24.95
2018-03-26T13:23:24.360Z,26.08
2018-03-26T13:25:51.955Z,29.33
2018-03-26T13:28:19.534Z,29.80
2018-03-26T13:30:47.253Z,29.35
2018-03-26T13:33:14.891Z,29.98
2018-03-26T13:35:42.479Z,28.77
2018-03-26T13:38:10.828Z,30.35
2018-03-26T13:40:38.413Z,32.35
2018-03-26T13:43:05.994Z,32.95
2018-03-26T13:45:34.392Z,32.00
2018-03-26T13:48:01.980Z,39.60
2018-03-26T13:50:29.627Z,35.25
2018-03-26T13:52:57.235Z,35.90
2018-03-26T13:55:24.823Z,33.17
2018-03-26T13:57:53.184Z,34.85
2018-03-26T14:00:20.784Z,34.33
2018-03-26T14:02:49.134Z,33.63
2018-03-26T14:05:16.719Z,32.83
2018-03-26T14:07:45.085Z,34.40
2018-03-26T14:10:24.583Z,33.33
2018-03-26T14:13:04.023Z,33.10
2018-03-26T14:15:43.610Z,30.80
2018-03-26T14:18:11.984Z,31.83
2018-03-26T14:20:40.356Z,32.92
2018-03-26T14:23:07.947Z,32.10
2018-03-26T14:25:36.494Z,31.35
2018-03-26T14:28:04.108Z,32.83
2018-03-26T14:30:32.467Z,32.70
2018-03-26T14:33:00.056Z,31.27
2018-03-26T14:35:43.314Z,31.87
2018-03-26T14:38:11.678Z,32.72
2018-03-26T14:40:39.271Z,31.02
2018-03-26T14:43:07.820Z,33.35
2018-03-26T14:45:36.151Z,32.13
2018-03-26T14:48:03.761Z,32.65
2018-03-26T14:50:31.359Z,33.47
2018-03-26T14:52:58.998Z,32.70
2018-03-26T14:55:26.589Z,34.83
2018-03-26T14:57:54.180Z,33.40
2018-03-26T15:00:21.780Z,33.35
2018-03-26T15:02:50.198Z,34.22
2018-03-26T15:05:18.516Z,33.65
2018-03-26T15:07:46.102Z,31.50
2018-03-26T15:10:14.459Z,31.98
2018-03-26T15:12:42.838Z,30.95
2018-03-26T15:15:10.434Z,32.70
2018-03-26T15:17:38.787Z,30.65
2018-03-26T15:20:06.388Z,32.80
2018-03-26T15:22:33.973Z,29.37
2018-03-26T15:25:01.612Z,28.42
2018-03-26T15:27:30.006Z,29.58
2018-03-26T15:29:58.390Z,27.92
2018-03-26T15:32:26.022Z,28.75
2018-03-26T15:34:53.602Z,29.10
2018-03-26T15:37:21.982Z,27.90
2018-03-26T15:39:49.580Z,30.05
2018-03-26T15:42:17.231Z,28.48
2018-03-26T15:44:44.825Z,29.95
2018-03-26T15:47:12.423Z,28.77
2018-03-26T15:49:40.011Z,30.70
2018-03-26T15:52:08.359Z,30.40
2018-03-26T15:54:36.001Z,31.60
2018-03-26T15:57:03.613Z,30.60
2018-03-26T15:59:31.226Z,33.08
2018-03-26T16:01:58.367Z,30.25
2018-03-26T16:04:25.978Z,33.28
2018-03-26T16:06:53.630Z,35.75
2018-03-26T16:09:21.251Z,33.83
2018-03-26T16:11:49.608Z,34.25
2018-03-26T16:14:17.265Z,34.42
2018-03-26T16:16:44.861Z,37.22
2018-03-26T16:19:13.219Z,34.75
2018-03-26T16:21:40.812Z,41.15
2018-03-26T16:24:09.168Z,36.50
2018-03-26T16:26:36.767Z,31.50
2018-03-26T16:29:04.382Z,32.40
2018-03-26T16:31:32.012Z,32.13
2018-03-26T16:33:59.616Z,31.45
2018-03-26T16:36:27.198Z,32.38
2018-03-26T16:38:54.819Z,33.65
2018-03-26T16:41:34.237Z,36.83
2018-03-26T16:44:01.820Z,35.15
2018-03-26T16:46:29.407Z,33.45
2018-03-26T16:48:57.040Z,38.75
2018-03-26T16:51:24.622Z,39.15
2018-03-26T16:53:52.239Z,38.08
2018-03-26T16:56:20.596Z,37.25
2018-03-26T16:58:49.179Z,34.50
2018-03-26T17:01:17.788Z,40.10
2018-03-26T17:03:45.456Z,35.35
2018-03-26T17:06:13.040Z,35.35
2018-03-26T17:08:41.396Z,47.65
2018-03-26T17:11:09.056Z,52.00
2018-03-26T17:13:36.671Z,100.85
2018-03-26T17:16:04.306Z,40.42
2018-03-26T17:18:31.921Z,81.40
2018-03-26T17:20:59.584Z,73.55
2018-03-26T17:23:27.197Z,60.35
2018-03-26T17:25:54.791Z,83.10
2018-03-26T17:28:22.382Z,58.60
2018-03-26T17:30:49.976Z,84.78
2018-03-26T17:33:17.568Z,55.90
2018-03-26T17:35:45.933Z,44.67
2018-03-26T17:38:13.528Z,34.55
2018-03-26T17:40:41.124Z,32.47
2018-03-26T17:43:08.715Z,32.42
2018-03-26T17:45:36.323Z,35.28
2018-03-26T17:48:03.985Z,33.22
2018-03-26T17:50:32.339Z,30.83
2018-03-26T17:52:59.931Z,31.05
2018-03-26T17:55:28.319Z,39.65
2018-03-26T17:57:55.923Z,32.95
2018-03-26T18:00:23.511Z,35.50
2018-03-26T18:02:51.106Z,30.25
2018-03-26T18:05:19.595Z,31.12
2018-03-26T18:07:47.955Z,33.63
2018-03-26T18:10:16.420Z,30.73
2018-03-26T18:12:44.016Z,33.35
2018-03-26T18:15:12.365Z,30.25
2018-03-26T18:17:39.950Z,28.05
2018-03-26T18:20:07.564Z,28.15
2018-03-26T18:22:35.542Z,27.48
2018-03-26T18:25:03.683Z,28.12
2018-03-26T18:27:31.351Z,32.20
2018-03-26T18:29:59.712Z,27.05
2018-03-26T18:32:27.315Z,22.42
2018-03-26T18:34:54.903Z,24.42
2018-03-26T18:37:22.500Z,22.42
2018-03-26T18:39:50.097Z,24.55
2018-03-26T18:42:18.488Z,22.13
2018-03-26T18:44:46.083Z,24.48
2018-03-26T18:47:13.771Z,22.90
2018-03-26T18:49:41.350Z,21.85
2018-03-26T18:52:08.977Z,21.52
2018-03-26T18:54:36.572Z,24.05
2018-03-26T18:57:04.213Z,25.08
2018-03-26T18:59:31.779Z,22.80
2018-03-26T19:02:00.103Z,22.52
2018-03-26T19:04:28.463Z,25.80
2018-03-26T19:06:56.074Z,25.23
2018-03-26T19:09:23.687Z,40.78
2018-03-26T19:11:51.275Z,30.45
2018-03-26T19:14:18.867Z,29.05
2018-03-26T19:16:46.933Z,24.33
2018-03-26T19:19:14.547Z,30.95
2018-03-26T19:21:42.178Z,32.55
2018-03-26T19:24:10.155Z,29.55
2018-03-26T19:26:37.743Z,31.02
2018-03-26T19:29:05.368Z,32.45
2018-03-26T19:31:33.750Z,34.22
2018-03-26T19:34:02.102Z,36.38
2018-03-26T19:36:29.691Z,35.33
2018-03-26T19:38:58.044Z,31.83
2018-03-26T19:41:26.090Z,33.15
2018-03-26T19:43:53.708Z,30.95
2018-03-26T19:46:21.307Z,34.25
2018-03-26T19:48:48.935Z,32.05
2018-03-26T19:51:16.531Z,34.42
2018-03-26T19:53:44.176Z,32.15
2018-03-26T19:56:12.534Z,31.48
2018-03-26T19:58:40.156Z,33.85
2018-03-26T20:01:07.816Z,34.22
2018-03-26T20:03:35.443Z,32.00
2018-03-26T20:06:03.029Z,32.40
2018-03-26T20:08:31.378Z,36.35
2018-03-26T20:10:58.970Z,32.78
2018-03-26T20:13:27.395Z,35.45
2018-03-26T20:15:54.968Z,35.40
2018-03-26T20:18:22.546Z,35.80
2018-03-26T20:20:50.135Z,35.65
2018-03-26T20:23:17.746Z,38.92
2018-03-26T20:25:45.336Z,41.45
2018-03-26T20:28:12.943Z,34.10
2018-03-26T20:30:41.508Z,36.22
2018-03-26T20:33:09.096Z,40.78
2018-03-26T20:35:36.687Z,46.83
2018-03-26T20:38:04.283Z,36.10
2018-03-26T20:40:31.881Z,50.97
2018-03-26T20:43:00.235Z,41.97
2018-03-26T20:45:27.828Z,39.70
2018-03-26T20:47:56.186Z,38.90
2018-03-26T20:50:23.795Z,37.10
2018-03-26T20:52:51.386Z,36.20
2018-03-26T20:55:18.988Z,37.83
2018-03-26T20:57:46.570Z,36.42
2018-03-26T21:00:14.934Z,38.05
2018-03-26T21:02:42.556Z,37.38
2018-03-26T21:05:10.147Z,37.55
2018-03-26T21:07:37.798Z,36.70
2018-03-26T21:10:05.391Z,38.20
2018-03-26T21:12:33.791Z,38.97
2018-03-26T21:15:01.383Z,39.13
2018-03-26T21:17:28.976Z,37.08
2018-03-26T21:19:56.562Z,38.25
2018-03-26T21:22:24.237Z,37.55
2018-03-26T21:24:51.822Z,38.33
2018-03-26T21:27:19.412Z,39.67
2018-03-26T21:29:47.007Z,38.90
2018-03-26T21:32:14.600Z,37.83
2018-03-26T21:34:42.189Z,37.53
2018-03-26T21:37:09.778Z,37.88
2018-03-26T21:39:37.398Z,39.17
2018-03-26T21:42:05.007Z,37.35
2018-03-26T21:44:32.602Z,40.50
2018-03-26T21:47:00.190Z,39.30
2018-03-26T21:49:27.787Z,36.42
2018-03-26T21:51:56.171Z,36.03
2018-03-26T21:54:24.538Z,36.38
2018-03-26T21:56:53.070Z,36.33
2018-03-26T21:59:20.763Z,36.47
2018-03-26T22:01:48.359Z,37.30
2018-03-26T22:04:16.776Z,33.92
2018-03-26T22:06:44.367Z,36.63
2018-03-26T22:09:11.964Z,36.53
2018-03-26T22:11:39.571Z,38.78
2018-03-26T22:14:07.207Z,43.83
2018-03-26T22:16:35.567Z,42.10
2018-03-26T22:19:03.175Z,40.58
2018-03-26T22:21:30.762Z,33.53
2018-03-26T22:23:58.351Z,38.22
2018-03-26T22:26:25.959Z,40.22
2018-03-26T22:28:54.396Z,41.95
2018-03-26T22:31:21.998Z,36.30
2018-03-26T22:33:50.503Z,30.80
2018-03-26T22:36:18.112Z,35.58
2018-03-26T22:38:45.720Z,31.58
2018-03-26T22:41:14.107Z,30.77
2018-03-26T22:43:42.492Z,28.17
2018-03-26T22:46:10.127Z,30.08
2018-03-26T22:48:37.724Z,28.62
2018-03-26T22:51:06.435Z,29.55
2018-03-26T22:53:34.121Z,28.80
2018-03-26T22:56:01.818Z,28.58
2018-03-26T22:58:29.416Z,30.17
2018-03-26T23:00:57.009Z,31.00
2018-03-26T23:03:24.675Z,29.37
2018-03-26T23:05:52.279Z,28.77
2018-03-26T23:08:20.791Z,28.98
2018-03-26T23:10:48.448Z,30.20
2018-03-26T23:13:16.264Z,28.30
2018-03-26T23:15:43.911Z,29.15
2018-03-26T23:18:11.623Z,26.42
2018-03-26T23:20:39.208Z,28.58
2018-03-26T23:23:07.235Z,29.70
2018-03-26T23:25:34.855Z,30.00
2018-03-26T23:28:03.219Z,34.15
2018-03-26T23:30:30.848Z,35.03
2018-03-26T23:32:58.459Z,33.08
2018-03-26T23:35:26.124Z,30.65
2018-03-26T23:37:53.715Z,28.52
2018-03-26T23:40:21.412Z,27.87
2018-03-26T23:42:49.110Z,29.75
2018-03-26T23:45:16.752Z,35.97
2018-03-26T23:47:44.414Z,30.75
2018-03-26T23:50:12.051Z,31.65
2018-03-26T23:52:39.659Z,30.15
2018-03-26T23:55:07.262Z,30.75
2018-03-26T23:57:34.887Z,30.98
